Time;durP1;ratioP1;P1;durP2;ratioP2;P2;SDS_P1;SDS_P2;PMS_P1;PMS_P2;Temp;Humidity;BMP_temperature;BMP_pressure;BME280_temperature;BME280_humidity;BME280_pressure;Samples;Min_cycle;Max_cycle;Signal;HPM_P1;HPM_P2
2022/08/04 00:02:39;;;;;;;6.32;1.70;;;20.70;99.90;;;;;;5037153;28;20052;-81
2022/08/04 00:05:10;;;;;;;10.40;2.40;;;20.70;99.90;;;;;;5009108;28;20042;-82
2022/08/04 00:07:44;;;;;;;3.92;1.88;;;20.60;99.90;;;;;;5035843;28;20049;-80
2022/08/04 00:10:10;;;;;;;;;;;20.60;99.90;;;;;;5042394;28;20045;-76
2022/08/04 00:12:41;;;;;;;8.30;2.03;;;20.60;99.90;;;;;;5034872;28;20288;-79
2022/08/04 00:15:10;;;;;;;7.28;2.25;;;20.60;99.90;;;;;;5040715;28;20504;-79
2022/08/04 00:17:44;;;;;;;3.40;1.73;;;20.60;99.90;;;;;;5034841;28;20037;-79
2022/08/04 00:20:16;;;;;;;7.32;2.13;;;20.60;99.90;;;;;;5032101;28;20056;-76
2022/08/04 00:22:45;;;;;;;6.35;2.05;;;20.60;99.90;;;;;;5018474;28;20413;-78
2022/08/04 00:25:11;;;;;;;4.18;1.70;;;20.60;99.90;;;;;;5040606;28;20072;-80
2022/08/04 00:27:37;;;;;;;8.75;1.80;;;20.60;99.90;;;;;;5036160;28;20083;-81
2022/08/04 00:30:05;;;;;;;7.75;2.13;;;20.60;99.90;;;;;;5040247;28;20034;-82
2022/08/04 00:32:31;;;;;;;5.05;1.92;;;20.50;99.90;;;;;;5041191;28;20075;-81
2022/08/04 00:34:57;;;;;;;9.93;2.00;;;20.50;99.90;;;;;;5039908;28;20056;-82
2022/08/04 00:37:25;;;;;;;7.82;2.45;;;21.20;99.90;;;;;;5032846;28;20049;-81
2022/08/04 00:39:53;;;;;;;7.05;2.17;;;20.70;99.90;;;;;;5041455;28;20075;-80
2022/08/04 00:42:34;;;;;;;10.20;2.13;;;20.60;99.90;;;;;;5007604;28;20481;-83
2022/08/04 00:45:22;;;;;;;6.82;2.03;;;20.50;99.90;;;;;;5022025;28;20049;-84
2022/08/04 00:48:09;;;;;;;6.65;1.70;;;20.30;99.90;;;;;;5037386;28;20679;-81
2022/08/04 00:51:13;;;;;;;5.38;2.13;;;20.50;99.90;;;;;;5040026;28;20044;-82
2022/08/04 00:53:44;;;;;;;5.53;1.97;;;20.40;99.90;;;;;;5033123;28;20061;-80
2022/08/04 00:56:47;;;;;;;3.70;1.95;;;19.70;99.90;;;;;;5023591;28;20125;-82
2022/08/04 00:59:55;;;;;;;9.95;2.22;;;20.40;99.90;;;;;;5008419;28;20613;-80
2022/08/04 01:02:38;;;;;;;7.72;2.40;;;20.30;99.90;;;;;;5017607;28;20068;-82
2022/08/04 01:05:38;;;;;;;5.05;2.25;;;20.60;99.90;;;;;;5042835;28;20044;-81
2022/08/04 01:08:45;;;;;;;5.65;2.22;;;20.30;99.90;;;;;;5040523;28;20497;-78
2022/08/04 01:11:23;;;;;;;9.10;2.35;;;20.30;99.90;;;;;;5039573;28;20044;-83
2022/08/04 01:14:20;;;;;;;4.70;1.80;;;20.30;99.90;;;;;;5025499;28;20094;-82
2022/08/04 01:16:57;;;;;;;5.80;2.30;;;20.20;99.90;;;;;;5046156;28;20041;-83
2022/08/04 01:19:56;;;;;;;4.60;1.92;;;20.30;99.90;;;;;;5049983;28;20036;-83
2022/08/04 01:22:31;;;;;;;12.43;2.58;;;20.30;99.90;;;;;;5040674;28;20053;-83
2022/08/04 01:24:57;;;;;;;9.02;1.80;;;20.30;99.90;;;;;;5044909;28;20120;-80
2022/08/04 01:28:08;;;;;;;6.00;2.28;;;20.30;99.90;;;;;;5032356;28;20500;-80
2022/08/04 01:30:38;;;;;;;5.25;2.40;;;20.30;99.90;;;;;;4960839;28;20086;-82
2022/08/04 01:33:08;;;;;;;4.50;1.88;;;20.20;99.90;;;;;;4963203;28;20053;-80
2022/08/04 01:35:49;;;;;;;6.60;2.03;;;20.30;99.90;;;;;;5005496;28;20049;-81
2022/08/04 01:38:37;;;;;;;5.53;2.38;;;20.30;99.90;;;;;;5039003;28;20041;-81
2022/08/04 01:41:13;;;;;;;10.43;2.70;;;20.30;99.90;;;;;;5043400;28;20045;-80
2022/08/04 01:43:46;;;;;;;8.55;2.38;;;20.30;99.90;;;;;;5022034;28;20064;-80
2022/08/04 01:46:18;;;;;;;9.38;2.92;;;20.30;99.90;;;;;;5047313;28;20037;-83
2022/08/04 01:48:46;;;;;;;5.20;2.30;;;20.30;99.90;;;;;;5043688;28;20041;-82
2022/08/04 01:51:12;;;;;;;5.05;2.33;;;20.30;99.90;;;;;;5048159;28;20086;-79
2022/08/04 01:53:43;;;;;;;7.75;2.22;;;20.20;99.90;;;;;;5029870;28;20056;-83
2022/08/04 01:56:11;;;;;;;6.28;1.85;;;20.20;99.90;;;;;;5030391;28;20057;-80
2022/08/04 01:58:38;;;;;;;6.45;2.40;;;20.20;99.90;;;;;;5046928;28;20565;-78
2022/08/04 02:01:07;;;;;;;10.70;2.22;;;20.20;99.90;;;;;;5048247;28;20519;-82
2022/08/04 02:03:36;;;;;;;4.90;2.17;;;20.30;99.90;;;;;;5049741;28;20896;-83
2022/08/04 02:06:27;;;;;;;11.65;2.70;;;20.50;99.90;;;;;;5038473;28;20475;-83
2022/08/04 02:08:55;;;;;;;8.13;2.35;;;20.20;99.90;;;;;;5042065;28;20492;-82
2022/08/04 02:11:24;;;;;;;10.77;3.20;;;20.20;99.90;;;;;;5045106;28;20045;-79
2022/08/04 02:14:11;;;;;;;10.32;2.70;;;20.20;99.90;;;;;;5038215;28;20135;-76
2022/08/04 02:16:49;;;;;;;7.07;2.20;;;20.20;99.90;;;;;;5038886;28;20476;-83
2022/08/04 02:19:23;;;;;;;8.20;2.40;;;20.90;99.90;;;;;;5034286;28;20604;-82
2022/08/04 02:21:56;;;;;;;8.88;2.55;;;20.20;99.90;;;;;;5043421;28;20367;-83
2022/08/04 02:24:27;;;;;;;7.25;2.65;;;20.20;99.90;;;;;;5040604;28;20060;-81
2022/08/04 02:26:55;;;;;;;8.52;2.70;;;20.10;99.90;;;;;;5043011;28;20037;-83
2022/08/04 02:29:32;;;;;;;7.25;2.35;;;20.20;99.90;;;;;;5047773;28;20041;-82
2022/08/04 02:32:04;;;;;;;5.47;2.72;;;20.10;99.90;;;;;;5040940;28;20170;-81
2022/08/04 02:35:04;;;;;;;8.35;2.58;;;20.10;99.90;;;;;;5047958;28;20507;-83
2022/08/04 02:37:34;;;;;;;9.13;3.42;;;20.10;99.90;;;;;;5043297;28;20064;-82
2022/08/04 02:40:02;;;;;;;6.55;3.15;;;20.00;99.90;;;;;;5040939;28;20136;-82
2022/08/04 02:42:29;;;;;;;9.93;2.15;;;20.00;99.90;;;;;;5045179;28;20041;-80
2022/08/04 02:44:57;;;;;;;7.75;2.90;;;20.00;99.90;;;;;;5045008;28;20037;-83
2022/08/04 02:47:25;;;;;;;9.98;2.80;;;20.00;99.90;;;;;;5045877;28;20505;-80
2022/08/04 02:49:55;;;;;;;8.63;2.92;;;20.00;99.90;;;;;;5044982;28;20112;-83
2022/08/04 02:52:23;;;;;;;9.75;2.92;;;20.00;99.90;;;;;;5046284;28;20455;-83
2022/08/04 02:54:52;;;;;;;7.20;2.47;;;20.00;99.90;;;;;;5044333;28;20045;-83
2022/08/04 02:57:22;;;;;;;9.20;2.60;;;20.70;99.90;;;;;;5037399;28;20103;-82
2022/08/04 02:59:54;;;;;;;7.00;3.25;;;20.00;99.90;;;;;;5046706;28;20052;-76
2022/08/04 03:02:46;;;;;;;8.45;2.50;;;20.00;99.90;;;;;;5026724;28;20894;-83
2022/08/04 03:05:25;;;;;;;6.22;3.00;;;20.00;99.90;;;;;;5013761;28;20053;-80
2022/08/04 03:08:43;;;;;;;6.43;2.67;;;20.00;99.90;;;;;;5045556;28;20454;-81
2022/08/04 03:11:29;;;;;;;6.57;2.80;;;19.90;99.90;;;;;;4930216;28;20059;-82
2022/08/04 03:14:37;;;;;;;6.90;2.67;;;19.90;99.90;;;;;;4915737;29;20047;-83
2022/08/04 03:17:09;;;;;;;9.88;2.97;;;19.90;99.90;;;;;;4948967;28;20039;-83
2022/08/04 03:20:15;;;;;;;8.10;3.08;;;19.90;99.90;;;;;;5004461;28;20049;-83
2022/08/04 03:22:49;;;;;;;8.05;3.20;;;19.80;99.90;;;;;;5044087;28;20041;-83
2022/08/04 03:25:15;;;;;;;8.00;3.60;;;19.80;99.90;;;;;;5044015;28;20125;-82
2022/08/04 03:28:04;;;;;;;8.23;3.10;;;20.80;99.90;;;;;;5043390;28;20451;-84
2022/08/04 03:31:17;;;;;;;6.72;3.47;;;19.80;99.90;;;;;;5043078;28;20037;-82
2022/08/04 03:33:57;;;;;;;12.32;3.70;;;19.80;99.90;;;;;;5042654;28;20045;-84
2022/08/04 03:36:26;;;;;;;7.68;3.08;;;19.70;99.90;;;;;;5024009;28;20540;-81
2022/08/04 03:39:13;;;;;;;10.30;2.55;;;20.40;99.90;;;;;;5043601;28;20139;-77
2022/08/04 03:42:20;;;;;;;6.63;2.88;;;19.80;99.90;;;;;;5043884;28;20029;-79
2022/08/04 03:45:33;;;;;;;7.65;2.85;;;19.80;99.90;;;;;;5042273;28;20046;-81
2022/08/04 03:48:17;;;;;;;6.00;2.88;;;19.80;99.90;;;;;;5009321;28;20382;-80
2022/08/04 03:53:07;;;;;;;5.88;3.40;;;19.70;99.90;;;;;;5028822;28;20040;-81
2022/08/04 03:54:01;;;;;;;7.50;2.83;;;19.70;99.90;;;;;;5043985;28;20492;-82
2022/08/04 03:56:42;;;;;;;7.97;2.53;;;19.70;99.90;;;;;;5026868;28;20406;-83
2022/08/04 03:59:23;;;;;;;8.52;4.25;;;19.70;99.90;;;;;;5045601;28;20025;-83
2022/08/04 04:02:05;;;;;;;6.20;3.20;;;19.70;99.90;;;;;;5027883;28;20047;-78
2022/08/04 04:05:02;;;;;;;9.77;3.38;;;19.60;99.90;;;;;;5044839;28;20045;-84
2022/08/04 04:08:13;;;;;;;10.60;2.92;;;19.60;99.90;;;;;;5023808;28;20211;-79
2022/08/04 04:10:46;;;;;;;9.02;2.90;;;19.60;99.90;;;;;;4974174;28;20504;-83
2022/08/04 04:13:25;;;;;;;10.75;3.20;;;19.70;99.90;;;;;;5034093;28;20068;-81
2022/08/04 04:16:23;;;;;;;6.50;3.08;;;19.60;99.90;;;;;;5009467;28;20064;-79
2022/08/04 04:18:56;;;;;;;8.63;3.40;;;19.60;99.90;;;;;;5045980;28;20041;-79
2022/08/04 04:21:36;;;;;;;4.53;3.33;;;20.40;99.90;;;;;;5046560;28;20465;-82
2022/08/04 04:24:19;;;;;;;4.93;2.72;;;19.60;99.90;;;;;;5029065;28;20080;-82
2022/08/04 04:26:54;;;;;;;10.97;2.97;;;19.70;99.90;;;;;;5045360;28;20136;-82
2022/08/04 04:29:52;;;;;;;5.72;3.03;;;19.60;99.90;;;;;;5045457;28;20558;-82
2022/08/04 04:33:02;;;;;;;7.82;3.17;;;19.60;99.90;;;;;;5024430;28;20405;-81
2022/08/04 04:35:47;;;;;;;7.85;3.20;;;19.50;99.90;;;;;;5013159;28;20113;-79
2022/08/04 04:38:43;;;;;;;5.00;3.35;;;19.60;99.90;;;;;;5022545;28;20087;-80
2022/08/04 04:41:27;;;;;;;5.45;3.08;;;19.60;99.90;;;;;;5006863;28;20050;-80
2022/08/04 04:44:42;;;;;;;5.72;3.20;;;19.50;99.90;;;;;;5018422;28;20041;-80
2022/08/04 04:47:14;;;;;;;;;;;19.60;99.90;;;;;;4961042;28;20602;-80
2022/08/04 04:50:03;;;;;;;10.70;3.33;;;19.60;99.90;;;;;;5015559;28;19920;-80
2022/08/04 04:52:56;;;;;;;10.48;3.45;;;19.60;99.90;;;;;;5037175;28;20057;-78
2022/08/04 04:55:29;;;;;;;6.95;3.40;;;19.60;99.90;;;;;;5037190;28;20382;-80
2022/08/04 04:57:58;;;;;;;6.70;3.08;;;19.60;99.90;;;;;;5034800;28;20034;-80
2022/08/04 05:00:35;;;;;;;7.80;3.15;;;19.60;99.90;;;;;;5023005;28;20041;-80
2022/08/04 05:03:44;;;;;;;9.40;3.60;;;19.60;99.90;;;;;;5025813;28;20045;-81
2022/08/04 05:06:27;;;;;;;7.00;3.65;;;19.60;99.90;;;;;;5024673;28;20041;-81
2022/08/04 05:09:13;;;;;;;10.77;4.40;;;19.60;99.90;;;;;;5037384;28;20025;-81
2022/08/04 05:11:57;;;;;;;4.10;3.58;;;19.70;99.90;;;;;;4991749;28;20061;-79
2022/08/04 05:14:26;;;;;;;;;;;19.70;99.90;;;;;;5031971;28;20377;-80
2022/08/04 05:17:20;;;;;;;8.93;3.42;;;19.70;99.90;;;;;;4347053;28;10000802;-77
2022/08/04 05:20:13;;;;;;;12.52;3.30;;;19.70;99.90;;;;;;5018383;28;20118;-78
2022/08/04 05:22:46;;;;;;;7.63;3.50;;;19.80;99.90;;;;;;5043316;28;20045;-89
2022/08/04 05:25:34;;;;;;;11.18;4.15;;;19.80;99.90;;;;;;5019873;28;20045;-76
2022/08/04 05:28:11;;;;;;;7.30;3.83;;;19.90;99.90;;;;;;5045121;28;20053;-85
2022/08/04 05:30:47;;;;;;;9.40;3.80;;;19.90;99.90;;;;;;5057111;28;20231;-88
2022/08/04 05:33:21;;;;;;;10.43;4.10;;;20.00;99.90;;;;;;5043578;28;20042;-86
2022/08/04 05:35:50;;;;;;;11.85;5.80;;;20.00;99.90;;;;;;5048734;28;20059;-82
2022/08/04 05:38:29;;;;;;;9.95;4.45;;;20.00;99.90;;;;;;5031053;28;20086;-85
2022/08/04 05:40:56;;;;;;;7.25;3.90;;;20.10;99.90;;;;;;5042529;28;20285;-81
2022/08/04 05:43:25;;;;;;;9.02;3.92;;;20.20;99.90;;;;;;5048250;28;20575;-82
2022/08/04 05:45:51;;;;;;;6.45;3.88;;;20.20;99.90;;;;;;5016236;28;20128;-85
2022/08/04 05:48:18;;;;;;;10.63;4.28;;;20.60;99.90;;;;;;5025477;28;20408;-81
2022/08/04 05:50:46;;;;;;;14.15;4.32;;;20.20;99.90;;;;;;5018755;28;20129;-82
2022/08/04 05:53:14;;;;;;;14.00;5.43;;;20.30;99.90;;;;;;5027647;28;20116;-79
2022/08/04 05:55:40;;;;;;;7.85;4.40;;;20.30;99.90;;;;;;5026863;28;20133;-83
2022/08/04 05:58:06;;;;;;;6.80;3.63;;;20.40;99.90;;;;;;5023064;28;20112;-77
2022/08/04 06:00:33;;;;;;;10.65;4.78;;;20.40;99.90;;;;;;5040827;28;20060;-81
2022/08/04 06:03:00;;;;;;;8.85;4.47;;;20.50;99.90;;;;;;5045386;28;20106;-82
2022/08/04 06:05:27;;;;;;;10.15;5.20;;;20.50;99.90;;;;;;5047749;28;20107;-79
2022/08/04 06:07:53;;;;;;;11.05;4.95;;;20.50;99.90;;;;;;5024073;28;20554;-83
2022/08/04 06:10:19;;;;;;;11.18;4.82;;;20.60;99.90;;;;;;5038868;28;20037;-80
2022/08/04 06:13:07;;;;;;;12.18;5.68;;;20.70;99.90;;;;;;5040243;28;20242;-85
2022/08/04 06:15:38;;;;;;;9.52;5.20;;;20.80;99.90;;;;;;5022852;28;20079;-84
2022/08/04 06:18:06;;;;;;;9.95;4.80;;;20.80;99.90;;;;;;5046843;28;20404;-82
2022/08/04 06:20:37;;;;;;;12.07;5.72;;;20.90;99.90;;;;;;5035415;28;20116;-80
2022/08/04 06:23:10;;;;;;;13.07;4.80;;;20.90;99.90;;;;;;5042789;28;20041;-81
2022/08/04 06:25:41;;;;;;;9.27;5.03;;;21.00;99.90;;;;;;5047111;28;20051;-78
2022/08/04 06:28:08;;;;;;;8.15;5.13;;;21.10;99.90;;;;;;5044714;28;20775;-82
2022/08/04 06:30:35;;;;;;;10.43;5.32;;;21.10;99.90;;;;;;5056919;28;20071;-79
2022/08/04 06:33:12;;;;;;;10.88;4.15;;;21.20;99.90;;;;;;5046522;28;20128;-78
2022/08/04 06:35:39;;;;;;;9.50;4.50;;;21.30;99.90;;;;;;5048870;28;20548;-78
2022/08/04 06:38:10;;;;;;;10.57;4.47;;;21.30;99.90;;;;;;5043597;28;20035;-80
2022/08/04 06:40:35;;;;;;;13.02;4.75;;;21.40;99.90;;;;;;5044868;28;20128;-79
2022/08/04 06:43:04;;;;;;;6.68;4.35;;;21.50;99.90;;;;;;5041274;28;20164;-82
2022/08/04 06:45:33;;;;;;;7.78;4.25;;;21.50;99.90;;;;;;5045438;28;20461;-82
2022/08/04 06:47:59;;;;;;;8.80;3.60;;;21.60;99.90;;;;;;5042361;28;20589;-81
2022/08/04 06:50:26;;;;;;;5.85;3.67;;;21.70;99.90;;;;;;5034282;28;20041;-78
2022/08/04 06:52:55;;;;;;;10.40;4.40;;;21.80;99.90;;;;;;5044228;28;20110;-80
2022/08/04 06:55:22;;;;;;;9.98;4.00;;;22.00;99.90;;;;;;5047069;28;20080;-84
2022/08/04 06:57:47;;;;;;;8.73;3.75;;;21.90;99.90;;;;;;5010128;28;20840;-84
2022/08/04 07:00:16;;;;;;;10.65;3.70;;;22.00;99.90;;;;;;5031342;28;20091;-85
2022/08/04 07:02:45;;;;;;;8.75;3.55;;;22.10;99.90;;;;;;5019662;28;20544;-84
2022/08/04 07:05:11;;;;;;;11.27;3.35;;;22.20;99.90;;;;;;5008342;28;20042;-78
2022/08/04 07:07:38;;;;;;;8.55;3.45;;;22.20;99.90;;;;;;5004727;28;20490;-75
2022/08/04 07:10:06;;;;;;;6.13;2.75;;;22.30;99.90;;;;;;4997101;28;20085;-80
2022/08/04 07:12:32;;;;;;;6.82;2.90;;;22.40;99.90;;;;;;5002905;28;20042;-80
2022/08/04 07:14:58;;;;;;;8.95;2.90;;;22.40;99.90;;;;;;5009330;28;20038;-81
2022/08/04 07:17:27;;;;;;;5.20;2.50;;;22.60;99.90;;;;;;5010753;28;20050;-82
2022/08/04 07:19:53;;;;;;;5.40;2.47;;;22.70;99.90;;;;;;5007382;28;20046;-81
2022/08/04 07:22:19;;;;;;;9.52;3.10;;;22.90;99.90;;;;;;5002073;28;20049;-82
2022/08/04 07:24:46;;;;;;;13.27;3.17;;;22.90;99.90;;;;;;5000878;28;20050;-78
2022/08/04 07:27:12;;;;;;;5.10;2.80;;;23.10;99.90;;;;;;4990836;28;20045;-76
2022/08/04 07:29:42;;;;;;;8.57;3.28;;;23.10;99.90;;;;;;5004776;28;20046;-75
2022/08/04 07:32:09;;;;;;;9.45;2.97;;;23.20;99.90;;;;;;5001353;28;20038;-76
2022/08/04 07:34:37;;;;;;;12.60;3.20;;;23.30;99.90;;;;;;5004721;28;20042;-77
2022/08/04 07:37:02;;;;;;;10.57;3.25;;;23.30;99.90;;;;;;4996246;28;20085;-77
2022/08/04 07:39:31;;;;;;;10.57;3.70;;;23.40;99.90;;;;;;5003497;28;20074;-78
2022/08/04 07:42:02;;;;;;;7.43;3.95;;;23.40;99.90;;;;;;4999889;28;20686;-76
2022/08/04 07:44:32;;;;;;;12.32;4.60;;;23.50;99.90;;;;;;5003896;28;20129;-85
2022/08/04 07:47:04;;;;;;;12.50;3.75;;;23.60;99.90;;;;;;5012016;28;20081;-83
2022/08/04 07:49:30;;;;;;;13.32;5.13;;;23.80;99.90;;;;;;5010208;28;20049;-83
2022/08/04 07:52:03;;;;;;;9.68;5.97;;;23.80;99.90;;;;;;5006040;28;20073;-85
2022/08/04 07:54:29;;;;;;;20.40;8.00;;;24.40;99.90;;;;;;5012392;28;20471;-81
2022/08/04 07:56:55;;;;;;;12.13;5.45;;;23.90;99.90;;;;;;5002891;28;20161;-84
2022/08/04 07:59:21;;;;;;;8.38;5.28;;;23.80;99.90;;;;;;5003552;28;20525;-83
2022/08/04 08:01:47;;;;;;;11.23;5.22;;;24.50;99.90;;;;;;5003132;28;20050;-78
2022/08/04 08:04:16;;;;;;;9.13;5.30;;;23.90;99.90;;;;;;5040517;28;20045;-83
2022/08/04 08:06:42;;;;;;;9.35;4.85;;;23.90;99.90;;;;;;5022887;28;20539;-84
2022/08/04 08:09:10;;;;;;;11.10;4.57;;;23.90;99.90;;;;;;5029202;28;20045;-82
2022/08/04 08:11:36;;;;;;;7.30;4.57;;;23.90;99.90;;;;;;5042819;28;20045;-83
2022/08/04 08:14:02;;;;;;;9.90;4.38;;;23.90;99.90;;;;;;5043115;28;20091;-82
2022/08/04 08:16:28;;;;;;;11.07;5.25;;;24.00;99.90;;;;;;5037442;28;20276;-80
2022/08/04 08:18:55;;;;;;;10.88;4.80;;;24.00;99.90;;;;;;5033714;28;20183;-83
2022/08/04 08:21:21;;;;;;;9.15;3.97;;;24.00;99.90;;;;;;5044943;28;20037;-83
2022/08/04 08:23:47;;;;;;;9.60;5.70;;;24.00;99.90;;;;;;5034835;28;20091;-82
2022/08/04 08:26:16;;;;;;;8.75;4.35;;;24.50;99.90;;;;;;5023244;28;20075;-78
2022/08/04 08:28:42;;;;;;;11.50;5.18;;;24.00;99.90;;;;;;5041007;28;20064;-79
2022/08/04 08:31:07;;;;;;;16.77;4.47;;;24.10;99.90;;;;;;5040245;28;20033;-78
2022/08/04 08:33:33;;;;;;;8.13;4.53;;;24.00;99.90;;;;;;4325567;28;10000739;-78
2022/08/04 08:36:31;;;;;;;9.18;7.30;;;24.10;99.90;;;;;;5020680;28;20048;-77
2022/08/04 08:39:10;;;;;;;13.50;5.82;;;24.10;99.90;;;;;;4974603;28;20058;-84
2022/08/04 08:42:25;;;;;;;14.23;4.15;;;24.10;99.90;;;;;;5036124;28;20068;-85
2022/08/04 08:45:23;;;;;;;6.03;3.97;;;24.10;99.90;;;;;;4956370;28;20042;-85
2022/08/04 08:48:25;;;;;;;11.02;5.63;;;24.10;99.90;;;;;;5038244;28;20060;-86
2022/08/04 08:50:58;;;;;;;10.43;5.07;;;24.40;99.90;;;;;;5028001;28;20488;-88
2022/08/04 08:53:51;;;;;;;10.63;5.00;;;24.20;99.90;;;;;;5025692;28;20053;-87
2022/08/04 08:56:44;;;;;;;15.13;5.13;;;24.20;99.90;;;;;;5024347;28;20060;-87
2022/08/04 08:59:49;;;;;;;12.00;5.35;;;24.30;99.90;;;;;;5041368;28;20060;-87
2022/08/04 09:02:45;;;;;;;10.15;5.57;;;24.30;99.90;;;;;;5047060;28;20099;-91
2022/08/04 09:05:49;;;;;;;12.18;5.70;;;24.20;99.90;;;;;;5024205;28;20049;-89
2022/08/04 09:08:36;;;;;;;12.23;5.57;;;24.20;99.90;;;;;;5019890;28;20057;-87
2022/08/04 09:11:10;;;;;;;6.72;5.20;;;24.20;99.90;;;;;;5045689;28;20068;-88
2022/08/04 09:13:46;;;;;;;9.07;5.35;;;24.10;99.90;;;;;;5042062;28;20045;-88
2022/08/04 09:16:23;;;;;;;13.98;5.40;;;24.10;99.90;;;;;;5045733;28;20067;-91
2022/08/04 09:19:08;;;;;;;8.20;4.68;;;24.20;99.90;;;;;;5027203;28;20260;-89
2022/08/04 09:21:55;;;;;;;9.63;4.85;;;24.20;99.90;;;;;;5050299;28;20071;-91
2022/08/04 09:24:48;;;;;;;10.32;4.60;;;24.20;99.90;;;;;;5063651;28;20041;-86
2022/08/04 09:27:29;;;;;;;6.30;3.33;;;24.70;99.90;;;;;;5048038;28;20088;-92
2022/08/04 09:30:09;;;;;;;10.98;3.38;;;24.30;99.90;;;;;;5044876;28;20044;-93
2022/08/04 09:32:38;;;;;;;7.20;4.03;;;24.40;99.90;;;;;;5031214;28;20076;-83
2022/08/04 09:35:22;;;;;;;9.02;3.90;;;24.50;99.90;;;;;;4701376;28;9999952;-86
2022/08/04 09:38:03;;;;;;;9.98;3.38;;;24.60;99.90;;;;;;5044457;28;20052;-88
2022/08/04 09:40:50;;;;;;;7.63;2.67;;;24.60;99.90;;;;;;5048529;28;20677;-85
2022/08/04 09:43:16;;;;;;;7.00;2.80;;;24.70;99.90;;;;;;5033822;28;20048;-88
2022/08/04 09:45:58;;;;;;;9.63;2.97;;;24.50;99.90;;;;;;5047522;28;20757;-86
2022/08/04 09:48:35;;;;;;;10.10;3.13;;;24.80;99.90;;;;;;5052645;28;20661;-87
2022/08/04 09:51:23;;;;;;;9.88;2.20;;;24.90;99.90;;;;;;5047132;28;20045;-88
2022/08/04 09:54:08;;;;;;;9.15;2.30;;;24.90;99.90;;;;;;5048465;28;20996;-84
2022/08/04 09:56:40;;;;;;;6.50;1.88;;;24.90;99.90;;;;;;5045652;28;20132;-84
2022/08/04 09:59:20;;;;;;;7.45;1.60;;;25.00;99.90;;;;;;5024413;28;20114;-84
2022/08/04 10:01:54;;;;;;;4.85;1.25;;;25.00;99.90;;;;;;5044440;28;20099;-86
2022/08/04 10:04:25;;;;;;;9.48;2.25;;;25.10;99.90;;;;;;5014908;28;20134;-84
2022/08/04 10:07:11;;;;;;;5.82;0.82;;;25.20;99.90;;;;;;5007395;28;20034;-86
2022/08/04 10:10:16;;;;;;;8.32;1.23;;;25.20;99.90;;;;;;5006846;28;20034;-80
2022/08/04 10:12:53;;;;;;;7.82;1.52;;;25.20;99.90;;;;;;4980500;28;20052;-85
2022/08/04 10:15:20;;;;;;;8.65;1.98;;;25.20;99.90;;;;;;5016376;28;20050;-86
2022/08/04 10:18:23;;;;;;;6.68;1.92;;;25.20;99.90;;;;;;5007387;28;20760;-85
2022/08/04 10:21:03;;;;;;;14.32;2.08;;;25.20;99.90;;;;;;5006470;28;20042;-78
2022/08/04 10:23:50;;;;;;;9.73;2.05;;;25.20;99.90;;;;;;5006086;28;20045;-83
2022/08/04 10:26:30;;;;;;;9.60;2.33;;;25.30;99.90;;;;;;5002064;28;20067;-78
2022/08/04 10:29:35;;;;;;;8.05;1.88;;;25.30;99.90;;;;;;5001404;28;20161;-80
2022/08/04 10:32:18;;;;;;;13.20;2.30;;;25.30;99.90;;;;;;5006840;28;20037;-80
2022/08/04 10:35:12;;;;;;;10.10;1.60;;;25.30;99.90;;;;;;4996413;28;20045;-79
2022/08/04 10:38:00;;;;;;;12.32;2.13;;;25.30;99.90;;;;;;4995871;28;20544;-79
2022/08/04 10:40:50;;;;;;;7.88;1.73;;;25.30;99.90;;;;;;5004219;28;20283;-77
2022/08/04 10:43:43;;;;;;;5.53;2.03;;;25.40;99.90;;;;;;5001681;28;20521;-79
2022/08/04 10:46:25;;;;;;;8.07;1.80;;;25.40;99.90;;;;;;5000232;28;20121;-77
2022/08/04 10:49:00;;;;;;;7.07;3.22;;;25.40;99.90;;;;;;5000121;28;20146;-78
2022/08/04 10:51:37;;;;;;;6.65;2.60;;;25.40;99.90;;;;;;5006214;28;20045;-78
2022/08/04 10:54:09;;;;;;;9.55;2.65;;;25.50;99.90;;;;;;5004485;28;20514;-78
2022/08/04 10:56:40;;;;;;;8.73;2.67;;;25.80;99.90;;;;;;5012153;28;20559;-78
2022/08/04 10:59:17;;;;;;;6.40;2.80;;;25.60;99.90;;;;;;5005926;28;20564;-77
2022/08/04 11:01:47;;;;;;;17.08;2.85;;;25.60;99.90;;;;;;5014982;28;20394;-78
2022/08/04 11:04:40;;;;;;;7.22;2.08;;;25.60;99.90;;;;;;5042654;28;20045;-77
2022/08/04 11:07:07;;;;;;;4.38;1.17;;;25.70;99.90;;;;;;5036371;28;20052;-80
2022/08/04 11:09:33;;;;;;;6.43;1.20;;;25.70;99.90;;;;;;5034077;28;20091;-80
2022/08/04 11:12:23;;;;;;;7.70;1.17;;;25.80;99.90;;;;;;5020839;28;20041;-78
2022/08/04 11:15:00;;;;;;;5.45;1.10;;;25.80;99.90;;;;;;5022029;28;20111;-78
2022/08/04 11:17:45;;;;;;;2.95;0.88;;;25.90;99.90;;;;;;5032527;28;20616;-79
2022/08/04 11:20:29;;;;;;;3.38;1.40;;;25.90;99.90;;;;;;5026427;28;20095;-79
2022/08/04 11:23:05;;;;;;;3.42;0.77;;;25.90;99.90;;;;;;5040272;28;20037;-78
2022/08/04 11:26:17;;;;;;;2.10;1.00;;;25.80;99.90;;;;;;5042257;28;20049;-78
2022/08/04 11:29:11;;;;;;;1.20;0.88;;;25.80;99.90;;;;;;5041461;28;20057;-79
2022/08/04 11:31:47;;;;;;;3.53;0.70;;;25.80;99.90;;;;;;5038557;28;20055;-79
2022/08/04 11:34:20;;;;;;;1.88;0.68;;;25.80;99.90;;;;;;5040061;28;20042;-79
2022/08/04 11:37:05;;;;;;;1.83;0.40;;;25.80;99.90;;;;;;5040942;28;20278;-79
2022/08/04 11:39:41;;;;;;;4.22;0.60;;;25.90;99.90;;;;;;5041260;28;20284;-77
2022/08/04 11:42:17;;;;;;;4.95;1.00;;;25.90;99.90;;;;;;5005105;28;20160;-79
2022/08/04 11:45:04;;;;;;;2.85;0.80;;;25.90;99.90;;;;;;5023239;28;20084;-78
2022/08/04 11:47:33;;;;;;;1.48;0.60;;;25.80;99.90;;;;;;5029499;28;20052;-78
2022/08/04 11:50:08;;;;;;;3.70;1.23;;;25.90;99.90;;;;;;5031778;28;20049;-76
2022/08/04 11:52:37;;;;;;;6.72;0.60;;;25.90;99.90;;;;;;5029803;28;20123;-78
2022/08/04 11:55:08;;;;;;;4.57;1.10;;;25.80;99.90;;;;;;5049492;28;20044;-79
2022/08/04 11:57:34;;;;;;;2.10;0.90;;;25.70;99.90;;;;;;5048452;28;20464;-78
2022/08/04 12:00:04;;;;;;;4.03;1.23;;;25.60;99.90;;;;;;5042926;28;20069;-81
2022/08/04 12:02:32;;;;;;;2.00;1.10;;;25.60;99.90;;;;;;5039775;28;20120;-79
2022/08/04 12:05:00;;;;;;;2.70;0.70;;;25.60;99.90;;;;;;5039948;28;20103;-79
2022/08/04 12:07:34;;;;;;;2.90;1.15;;;25.50;99.90;;;;;;5047283;28;20182;-77
2022/08/04 12:10:19;;;;;;;2.20;0.98;;;25.40;99.90;;;;;;5022551;28;20302;-82
2022/08/04 12:13:14;;;;;;;0.85;0.43;;;25.40;99.90;;;;;;5042907;28;20045;-80
2022/08/04 12:16:02;;;;;;;2.10;0.50;;;25.40;99.90;;;;;;5027164;28;20063;-79
2022/08/04 12:18:41;;;;;;;1.88;0.50;;;25.30;99.90;;;;;;5027890;28;20048;-77
2022/08/04 12:21:15;;;;;;;3.47;2.03;;;25.30;99.90;;;;;;5045939;28;20528;-78
2022/08/04 12:23:43;;;;;;;3.28;1.95;;;25.30;99.90;;;;;;5029727;28;20073;-80
2022/08/04 12:26:27;;;;;;;1.92;0.57;;;25.30;99.90;;;;;;5041800;28;20052;-78
2022/08/04 12:29:02;;;;;;;1.63;0.57;;;25.20;99.90;;;;;;5029747;28;20407;-78
2022/08/04 12:32:25;;;;;;;2.25;0.63;;;25.10;99.90;;;;;;5046455;28;20091;-77
2022/08/04 12:35:04;;;;;;;1.40;0.40;;;25.10;99.90;;;;;;4971103;28;20537;-79
2022/08/04 12:38:02;;;;;;;1.40;0.47;;;25.10;99.90;;;;;;4983398;28;20050;-78
2022/08/04 12:40:47;;;;;;;1.38;0.52;;;25.00;99.90;;;;;;5034369;28;20047;-77
2022/08/04 12:43:18;;;;;;;1.60;0.75;;;25.10;99.90;;;;;;4331959;28;10000789;-75
2022/08/04 12:46:12;;;;;;;2.28;0.50;;;25.20;99.90;;;;;;5045571;28;20052;-77
2022/08/04 12:48:44;;;;;;;2.78;0.50;;;25.30;99.90;;;;;;5035170;28;20037;-77
2022/08/04 12:51:13;;;;;;;1.65;0.65;;;25.40;99.90;;;;;;5037625;28;20048;-78
2022/08/04 12:53:43;;;;;;;2.80;0.65;;;25.30;99.90;;;;;;5041103;28;20033;-78
2022/08/04 12:56:18;;;;;;;1.20;0.65;;;25.30;99.90;;;;;;5044407;28;20402;-77
2022/08/04 12:58:46;;;;;;;1.45;0.68;;;25.30;99.90;;;;;;5045291;28;20025;-78
2022/08/04 13:01:20;;;;;;;1.10;0.50;;;25.40;99.90;;;;;;5045261;28;20160;-78
2022/08/04 13:03:56;;;;;;;2.50;0.65;;;25.40;99.90;;;;;;5027347;28;20137;-80
2022/08/04 13:06:33;;;;;;;3.88;0.70;;;25.50;99.90;;;;;;5035832;28;20055;-77
2022/08/04 13:09:13;;;;;;;2.45;0.60;;;25.50;99.90;;;;;;5047572;28;20122;-78
2022/08/04 13:11:51;;;;;;;4.85;1.15;;;25.60;99.90;;;;;;5018243;28;20045;-78
2022/08/04 13:14:18;;;;;;;2.60;1.27;;;25.60;99.90;;;;;;5015349;28;20505;-78
2022/08/04 13:16:43;;;;;;;2.20;0.63;;;25.60;99.90;;;;;;5050220;28;20096;-78
2022/08/04 13:19:09;;;;;;;2.78;0.63;;;25.70;99.90;;;;;;5028411;28;20125;-79
2022/08/04 13:21:42;;;;;;;4.50;0.55;;;25.70;99.90;;;;;;5024729;28;20186;-77
2022/08/04 13:24:15;;;;;;;1.77;0.40;;;25.70;99.90;;;;;;5039117;28;20033;-78
2022/08/04 13:26:56;;;;;;;2.00;0.73;;;25.70;99.90;;;;;;5031249;28;20311;-78
2022/08/04 13:29:24;;;;;;;1.95;0.40;;;25.80;99.90;;;;;;5049640;28;20037;-78
2022/08/04 13:31:51;;;;;;;3.88;0.52;;;25.90;99.90;;;;;;5031793;28;20457;-78
2022/08/04 13:34:18;;;;;;;3.90;0.65;;;26.10;99.90;;;;;;5047349;28;20049;-79
2022/08/04 13:36:49;;;;;;;3.30;0.52;;;26.30;99.90;;;;;;5045851;28;20033;-78
2022/08/04 13:39:20;;;;;;;2.50;0.40;;;26.40;99.90;;;;;;5028569;28;20045;-78
2022/08/04 13:41:51;;;;;;;3.47;0.57;;;26.50;99.90;;;;;;5045712;28;20041;-78